Japan Airlines Virtual Airport Information Service

Miyazaki Airport

ICAO: RJFM Country: Japan
Latitude: 31.8772 Longitude: 131.449
Latest Arrival : SCC104 (RJFK-RJFM) Latest Departure : SCC6943 (RJFM-RKSI)


WX CaptureLIVE
Data provided by noaa.gov | Fetched at 08:20:40

METAR : RJFM 010800Z 07007KT 9999 FEW030 25/18 Q1011

TAF : RJFM 010506Z 0106/0212 06010KT 9999 FEW030 BECMG 0111/0113 28005KT BECMG 0200/0203 11008KT


Runway Data for RJFM
Data provided by openaviationdata.com

Runway ID Mag Var Hdg Length Elevation Surface ILS Freq ILS Id ILS Slope
9 -6 91° 8194 ft 19 ft Asphalt -- -- --
27 -6 271° 8194 ft 19 ft Asphalt 108.9 IMZ 3

Miyazaki Airport, Japan
Use only for reference purposes



Not for navigational purposes.